Time;durP1;ratioP1;P1;durP2;ratioP2;P2;SDS_P1;SDS_P2;PMS_P1;PMS_P2;Temp;Humidity;BMP_temperature;BMP_pressure;BME280_temperature;BME280_humidity;BME280_pressure;Samples;Min_cycle;Max_cycle;Signal;HPM_P1;HPM_P2
2021/11/24 00:00:47;;;;;;;0.30;0.20;;;20.00;51.80;;;;;;4907340;29;20032;-39
2021/11/24 00:03:13;;;;;;;0.20;0.15;;;19.90;51.80;;;;;;4905816;29;20035;-39
2021/11/24 00:05:40;;;;;;;0.98;0.30;;;19.80;51.70;;;;;;4906528;29;20505;-39
2021/11/24 00:08:06;;;;;;;0.50;0.30;;;19.90;52.00;;;;;;4906436;29;20032;-39
2021/11/24 00:10:34;;;;;;;0.30;0.30;;;20.00;52.10;;;;;;4906473;29;20088;-39
2021/11/24 00:13:01;;;;;;;0.50;0.30;;;20.00;52.10;;;;;;4906827;29;20072;-39
2021/11/24 00:15:27;;;;;;;0.57;0.28;;;20.00;52.10;;;;;;4906557;29;20036;-39
2021/11/24 00:17:53;;;;;;;0.45;0.30;;;20.00;51.90;;;;;;4905722;29;20862;-39
2021/11/24 00:20:19;;;;;;;0.50;0.32;;;19.90;51.80;;;;;;4909200;29;20167;-39
2021/11/24 00:22:45;;;;;;;0.73;0.30;;;19.90;51.80;;;;;;4889233;29;20040;-39
2021/11/24 00:25:12;;;;;;;0.50;0.30;;;19.90;51.80;;;;;;4906364;29;20039;-39
2021/11/24 00:27:38;;;;;;;0.50;0.32;;;19.80;52.00;;;;;;4905532;29;20036;-39
2021/11/24 00:30:05;;;;;;;0.40;0.30;;;19.90;52.10;;;;;;4906943;29;20876;-39
2021/11/24 00:32:31;;;;;;;1.75;0.40;;;19.90;52.10;;;;;;4901076;29;20063;-39
2021/11/24 00:34:57;;;;;;;0.52;0.30;;;20.00;52.30;;;;;;4888267;29;20506;-39
2021/11/24 00:37:23;;;;;;;1.13;0.40;;;20.00;52.00;;;;;;4888227;29;20049;-38
2021/11/24 00:39:50;;;;;;;2.45;0.40;;;20.00;51.90;;;;;;4891851;29;20029;-38
2021/11/24 00:42:16;;;;;;;1.45;0.40;;;19.90;51.90;;;;;;4892189;29;20029;-39
2021/11/24 00:44:42;;;;;;;0.73;0.50;;;19.90;52.00;;;;;;4892087;29;20029;-39
2021/11/24 00:47:09;;;;;;;0.80;0.40;;;19.90;52.00;;;;;;4891499;29;20063;-39
2021/11/24 00:49:36;;;;;;;4.65;0.70;;;19.70;52.00;;;;;;4904014;29;20032;-39
2021/11/24 00:52:03;;;;;;;;;;;19.90;52.40;;;;;;4911224;29;20041;-39
2021/11/24 00:54:29;;;;;;;5.95;1.00;;;19.90;52.40;;;;;;4909165;29;19908;-39
2021/11/24 00:56:55;;;;;;;2.20;0.88;;;20.00;52.50;;;;;;4902112;29;20032;-39
2021/11/24 00:59:21;;;;;;;7.15;1.40;;;19.90;52.20;;;;;;4910479;29;20052;-39
2021/11/24 01:01:47;;;;;;;5.00;1.60;;;19.90;52.20;;;;;;4910693;29;20036;-39
2021/11/24 01:04:13;;;;;;;13.50;1.83;;;19.90;52.40;;;;;;4910117;29;20119;-39
2021/11/24 01:06:39;;;;;;;7.57;1.77;;;19.80;52.40;;;;;;4909952;29;20042;-39
2021/11/24 01:09:05;;;;;;;7.45;1.90;;;19.70;52.60;;;;;;4904146;29;20037;-39
2021/11/24 01:11:32;;;;;;;4.57;1.50;;;19.80;52.80;;;;;;4903924;29;20032;-39
2021/11/24 01:13:58;;;;;;;4.97;1.05;;;19.90;52.90;;;;;;4910515;29;20055;-40
2021/11/24 01:16:24;;;;;;;6.07;1.15;;;20.00;52.90;;;;;;4910348;29;20084;-40
2021/11/24 01:18:50;;;;;;;3.60;1.20;;;20.00;52.80;;;;;;4914473;29;20077;-39
2021/11/24 01:21:16;;;;;;;6.25;1.05;;;19.90;52.60;;;;;;4906320;29;20033;-39
2021/11/24 01:23:43;;;;;;;5.13;0.93;;;19.90;52.70;;;;;;4910348;29;20040;-39
2021/11/24 01:26:09;;;;;;;2.78;1.08;;;19.80;52.70;;;;;;4908842;29;20048;-39
2021/11/24 01:28:36;;;;;;;3.17;1.15;;;19.80;52.80;;;;;;4899342;29;20033;-39
2021/11/24 01:31:02;;;;;;;1.75;0.90;;;19.90;52.90;;;;;;4891587;29;20084;-40
2021/11/24 01:33:28;;;;;;;2.05;1.00;;;19.90;52.90;;;;;;4905136;29;20135;-39
2021/11/24 01:35:54;;;;;;;2.33;1.20;;;20.00;52.90;;;;;;4912104;29;20047;-41
2021/11/24 01:38:20;;;;;;;2.67;0.90;;;19.90;52.60;;;;;;4920155;29;20456;-39
2021/11/24 01:40:46;;;;;;;1.52;0.70;;;19.90;53.20;;;;;;4928251;29;20127;-39
2021/11/24 01:43:12;;;;;;;1.60;0.88;;;19.80;52.60;;;;;;4910058;29;20785;-39
2021/11/24 01:45:38;;;;;;;2.17;0.75;;;19.80;52.70;;;;;;4909776;29;20079;-39
2021/11/24 01:48:05;;;;;;;1.40;0.93;;;19.80;52.90;;;;;;4909999;29;20092;-40
2021/11/24 01:50:31;;;;;;;1.70;0.87;;;19.90;52.90;;;;;;4918017;29;20036;-39
2021/11/24 01:52:57;;;;;;;1.45;0.70;;;19.90;52.80;;;;;;4909440;29;20067;-39
2021/11/24 01:55:23;;;;;;;1.73;0.70;;;19.90;52.80;;;;;;4909527;29;20101;-39
2021/11/24 01:57:50;;;;;;;1.35;0.70;;;19.90;52.50;;;;;;4905361;29;20044;-39
2021/11/24 02:00:26;;;;;;;2.03;0.70;;;19.90;52.60;;;;;;4909573;29;20024;-40
2021/11/24 02:02:52;;;;;;;1.50;0.90;;;19.80;52.60;;;;;;4909182;29;20295;-39
2021/11/24 02:05:19;;;;;;;1.50;0.80;;;19.70;52.60;;;;;;4909519;29;20195;-39
2021/11/24 02:07:45;;;;;;;0.80;0.47;;;19.80;52.80;;;;;;4909529;29;20581;-39
2021/11/24 02:10:11;;;;;;;1.33;0.60;;;19.90;52.80;;;;;;4894150;29;20037;-39
2021/11/24 02:12:38;;;;;;;1.45;0.70;;;20.00;52.80;;;;;;4890755;29;20033;-40
2021/11/24 02:15:05;;;;;;;1.37;0.90;;;20.00;52.60;;;;;;4898713;29;20430;-39
2021/11/24 02:17:31;;;;;;;0.90;0.60;;;19.90;52.50;;;;;;4908993;29;20406;-39
2021/11/24 02:19:57;;;;;;;1.13;0.52;;;19.80;52.40;;;;;;4905632;29;20121;-39
2021/11/24 02:22:23;;;;;;;1.20;0.75;;;19.80;52.50;;;;;;4928133;29;20043;-39
2021/11/24 02:24:50;;;;;;;1.23;0.60;;;19.80;52.60;;;;;;4923572;29;20036;-39
2021/11/24 02:27:16;;;;;;;0.93;0.60;;;19.80;52.70;;;;;;4909441;29;20059;-39
2021/11/24 02:29:44;;;;;;;1.38;0.68;;;19.90;52.70;;;;;;4927483;29;20024;-39
2021/11/24 02:32:11;;;;;;;0.98;0.57;;;20.00;52.70;;;;;;4927861;29;20043;-39
2021/11/24 02:34:37;;;;;;;0.70;0.55;;;19.90;52.40;;;;;;4924547;29;20028;-39
2021/11/24 02:37:03;;;;;;;0.85;0.50;;;19.90;52.40;;;;;;4927850;29;20174;-39
2021/11/24 02:39:30;;;;;;;1.10;0.50;;;19.80;52.40;;;;;;4927832;29;20024;-39
2021/11/24 02:41:57;;;;;;;1.30;0.80;;;19.80;52.50;;;;;;4927787;29;20046;-39
2021/11/24 02:44:41;;;;;;;2.67;0.63;;;19.80;52.70;;;;;;4927699;29;20028;-39
2021/11/24 02:47:19;;;;;;;0.77;0.50;;;19.90;52.60;;;;;;4927388;29;20746;-39
2021/11/24 02:49:52;;;;;;;1.23;0.70;;;19.90;52.60;;;;;;4927055;29;20036;-39
2021/11/24 02:52:20;;;;;;;1.10;0.80;;;20.00;52.30;;;;;;4927419;29;20051;-39
2021/11/24 02:54:53;;;;;;;;;;;19.90;52.30;;;;;;4910426;29;20537;-39
2021/11/24 02:57:19;;;;;;;1.17;0.68;;;19.80;52.30;;;;;;4927522;29;19919;-39
2021/11/24 02:59:45;;;;;;;1.48;0.90;;;19.80;52.50;;;;;;4926921;29;20438;-39
2021/11/24 03:02:11;;;;;;;1.67;0.57;;;19.80;52.60;;;;;;4926646;29;20119;-39
2021/11/24 03:04:37;;;;;;;1.15;0.68;;;19.90;52.60;;;;;;4940081;29;20019;-39
2021/11/24 03:07:04;;;;;;;1.40;0.73;;;19.90;52.60;;;;;;4946785;29;20039;-41
2021/11/24 03:09:30;;;;;;;0.90;0.70;;;19.90;52.20;;;;;;4946247;29;20028;-39
2021/11/24 03:11:56;;;;;;;1.60;0.70;;;19.90;52.30;;;;;;4942952;29;20134;-39
2021/11/24 03:14:22;;;;;;;0.80;0.57;;;19.80;52.30;;;;;;4927317;29;20029;-39
2021/11/24 03:16:49;;;;;;;0.75;0.60;;;19.80;52.50;;;;;;4927052;29;20031;-39
2021/11/24 03:19:15;;;;;;;1.10;0.70;;;19.80;52.60;;;;;;4926353;29;20064;-40
2021/11/24 03:21:41;;;;;;;1.45;0.73;;;19.90;52.60;;;;;;4927456;29;20029;-39
2021/11/24 03:24:07;;;;;;;1.48;0.77;;;19.90;52.40;;;;;;4927116;29;20048;-39
2021/11/24 03:26:33;;;;;;;1.75;0.80;;;19.90;52.10;;;;;;4908763;29;20047;-39
2021/11/24 03:28:59;;;;;;;1.35;0.70;;;19.90;52.10;;;;;;4894508;29;20040;-39
2021/11/24 03:31:26;;;;;;;1.13;0.45;;;19.80;52.30;;;;;;4888974;29;20051;-39
2021/11/24 03:33:52;;;;;;;1.63;0.60;;;19.80;52.40;;;;;;4901740;29;20028;-39
2021/11/24 03:36:18;;;;;;;1.00;0.68;;;19.90;52.60;;;;;;4894789;29;20037;-39
2021/11/24 03:38:44;;;;;;;1.00;0.73;;;19.90;52.50;;;;;;4908781;29;20029;-39
2021/11/24 03:41:10;;;;;;;0.98;0.75;;;20.00;52.50;;;;;;4918022;29;20492;-39
2021/11/24 03:43:36;;;;;;;0.80;0.70;;;20.00;52.20;;;;;;4907793;29;20041;-39
2021/11/24 03:46:02;;;;;;;1.33;0.77;;;19.90;52.10;;;;;;4889909;29;20587;-39
2021/11/24 03:48:28;;;;;;;0.85;0.60;;;19.80;52.20;;;;;;4897250;29;20029;-39
2021/11/24 03:50:54;;;;;;;0.80;0.60;;;19.80;52.40;;;;;;4926436;29;20214;-40
2021/11/24 03:53:21;;;;;;;1.02;0.60;;;19.90;52.50;;;;;;4926694;29;20028;-39
2021/11/24 03:55:47;;;;;;;0.90;0.60;;;19.90;52.50;;;;;;4913800;29;20040;-39
2021/11/24 03:58:13;;;;;;;0.90;0.60;;;20.00;52.50;;;;;;4907852;29;20040;-39
2021/11/24 04:00:39;;;;;;;2.22;0.80;;;20.00;52.20;;;;;;4906742;29;20072;-39
2021/11/24 04:03:05;;;;;;;1.15;0.50;;;20.00;52.20;;;;;;4907491;29;20477;-39
2021/11/24 04:05:31;;;;;;;0.90;0.70;;;19.80;52.20;;;;;;4907668;29;20040;-39
2021/11/24 04:07:57;;;;;;;1.40;0.75;;;19.80;52.40;;;;;;4907622;29;20549;-39
2021/11/24 04:10:24;;;;;;;1.35;0.80;;;19.90;52.60;;;;;;4907282;29;20032;-40
2021/11/24 04:12:50;;;;;;;1.20;0.82;;;19.90;52.50;;;;;;4907021;29;20043;-39
2021/11/24 04:15:18;;;;;;;0.70;0.60;;;20.00;52.50;;;;;;4907533;29;20029;-40
2021/11/24 04:17:44;;;;;;;0.77;0.60;;;20.00;52.40;;;;;;4907430;29;20036;-39
2021/11/24 04:20:12;;;;;;;1.42;0.82;;;20.00;52.20;;;;;;4911819;29;20112;-39
2021/11/24 04:22:42;;;;;;;1.48;0.90;;;19.90;52.30;;;;;;4888360;29;20061;-40
2021/11/24 04:25:08;;;;;;;1.42;0.70;;;19.80;52.70;;;;;;4895089;29;20032;-39
2021/11/24 04:27:35;;;;;;;0.80;0.60;;;19.80;52.60;;;;;;4903570;29;20140;-39
2021/11/24 04:30:01;;;;;;;0.87;0.63;;;19.90;52.60;;;;;;4888605;29;20033;-39
2021/11/24 04:32:27;;;;;;;0.80;0.70;;;20.00;52.60;;;;;;4889674;29;20041;-40
2021/11/24 04:34:53;;;;;;;0.80;0.65;;;20.00;52.50;;;;;;4907181;29;20035;-39
2021/11/24 04:37:19;;;;;;;1.30;0.80;;;20.00;52.20;;;;;;4907257;29;20509;-39
2021/11/24 04:39:45;;;;;;;2.33;1.00;;;20.00;52.30;;;;;;4907341;29;20076;-39
2021/11/24 04:42:12;;;;;;;1.15;0.85;;;19.80;52.30;;;;;;4907031;29;20033;-39
2021/11/24 04:44:38;;;;;;;1.63;0.90;;;19.80;52.50;;;;;;4907515;29;20127;-39
2021/11/24 04:47:04;;;;;;;1.40;0.75;;;19.90;52.60;;;;;;4907152;29;20391;-39
2021/11/24 04:49:30;;;;;;;3.63;0.95;;;20.00;52.60;;;;;;4919087;29;20036;-39
2021/11/24 04:51:56;;;;;;;1.45;0.90;;;20.00;52.50;;;;;;4914791;29;20053;-39
2021/11/24 04:54:23;;;;;;;1.15;0.80;;;20.00;52.30;;;;;;4906369;29;20040;-39
2021/11/24 04:56:49;;;;;;;1.00;0.80;;;20.00;52.30;;;;;;4888498;29;20080;-39
2021/11/24 04:59:15;;;;;;;1.00;0.82;;;19.80;52.40;;;;;;4890929;29;20452;-40
2021/11/24 05:01:42;;;;;;;1.00;0.70;;;19.80;52.50;;;;;;4906697;29;20137;-39
2021/11/24 05:04:08;;;;;;;1.50;1.00;;;19.90;52.70;;;;;;4906478;29;20212;-39
2021/11/24 05:06:34;;;;;;;1.13;0.80;;;20.00;52.60;;;;;;4906997;29;20028;-39
2021/11/24 05:09:00;;;;;;;1.23;0.80;;;20.00;52.60;;;;;;4906900;29;20041;-39
2021/11/24 05:11:26;;;;;;;1.20;0.90;;;20.00;52.30;;;;;;4906691;29;20033;-39
2021/11/24 05:13:55;;;;;;;1.70;0.80;;;19.90;52.30;;;;;;4904004;29;20036;-39
2021/11/24 05:16:23;;;;;;;0.95;0.80;;;19.90;52.40;;;;;;4903673;29;20043;-39
2021/11/24 05:18:50;;;;;;;1.15;0.80;;;19.80;52.60;;;;;;4911738;29;20060;-39
2021/11/24 05:21:24;;;;;;;1.08;0.90;;;19.90;52.60;;;;;;4925535;29;20084;-39
2021/11/24 05:23:50;;;;;;;1.95;1.00;;;20.00;52.60;;;;;;4925849;29;20038;-40
2021/11/24 05:26:16;;;;;;;1.40;0.90;;;20.10;52.60;;;;;;4897880;29;20041;-39
2021/11/24 05:28:42;;;;;;;1.08;0.82;;;20.00;52.30;;;;;;4891556;29;20061;-39
2021/11/24 05:31:08;;;;;;;0.93;0.82;;;19.90;52.20;;;;;;4891528;29;20037;-39
2021/11/24 05:33:36;;;;;;;1.25;0.80;;;19.80;52.30;;;;;;4902514;29;20036;-39
2021/11/24 05:36:03;;;;;;;1.58;0.90;;;19.90;52.60;;;;;;4909923;29;20024;-40
2021/11/24 05:38:30;;;;;;;0.90;0.70;;;19.90;52.60;;;;;;4910152;29;20033;-39
2021/11/24 05:40:56;;;;;;;1.30;0.80;;;20.00;52.60;;;;;;4910275;29;20591;-39
2021/11/24 05:43:26;;;;;;;1.30;0.95;;;20.10;52.60;;;;;;4910027;29;20059;-39
2021/11/24 05:48:19;;;;;;;1.52;0.80;;;20.00;52.30;;;;;;4910111;29;20028;-39
2021/11/24 05:50:46;;;;;;;1.63;0.83;;;19.90;52.40;;;;;;4909743;29;20044;-39
2021/11/24 05:53:13;;;;;;;1.30;0.80;;;19.80;52.50;;;;;;4909024;29;20021;-39
2021/11/24 05:55:39;;;;;;;1.50;1.10;;;19.90;52.60;;;;;;4899684;29;20063;-39
2021/11/24 05:58:06;;;;;;;1.35;0.77;;;20.00;52.50;;;;;;4890909;29;20049;-39
2021/11/24 06:00:33;;;;;;;1.38;0.70;;;20.00;52.50;;;;;;4908735;29;20029;-39
2021/11/24 06:02:59;;;;;;;1.00;0.70;;;20.00;52.30;;;;;;4909268;29;20051;-40
2021/11/24 06:05:25;;;;;;;1.10;0.85;;;20.00;52.20;;;;;;4909489;29;20032;-39
2021/11/24 06:07:51;;;;;;;1.75;0.73;;;19.90;52.30;;;;;;4909774;29;20032;-39
2021/11/24 06:10:18;;;;;;;1.42;0.98;;;19.80;52.40;;;;;;4909615;29;20053;-39
2021/11/24 06:12:44;;;;;;;1.88;0.85;;;19.90;52.60;;;;;;4909409;29;20064;-39
2021/11/24 06:15:15;;;;;;;1.10;0.80;;;19.90;52.50;;;;;;4909545;29;20084;-39
2021/11/24 06:17:42;;;;;;;1.30;0.90;;;20.00;52.50;;;;;;4909271;29;20045;-39
2021/11/24 06:20:09;;;;;;;1.45;0.88;;;20.00;52.30;;;;;;4926255;29;20055;-39
2021/11/24 06:22:35;;;;;;;1.67;0.82;;;20.00;52.30;;;;;;4928193;29;20036;-39
2021/11/24 06:25:02;;;;;;;1.98;1.10;;;19.90;52.40;;;;;;4904502;29;20040;-42
2021/11/24 06:27:28;;;;;;;1.05;0.77;;;19.80;52.50;;;;;;4892354;29;20499;-40
2021/11/24 06:29:54;;;;;;;1.33;0.90;;;19.90;52.70;;;;;;4909223;29;20028;-39
2021/11/24 06:32:20;;;;;;;1.23;0.90;;;19.90;52.60;;;;;;4909111;29;20039;-39
2021/11/24 06:34:46;;;;;;;1.45;0.95;;;20.00;52.50;;;;;;4908821;29;20055;-45
2021/11/24 06:37:12;;;;;;;0.98;0.73;;;20.10;52.40;;;;;;4908659;29;20032;-39
2021/11/24 06:39:38;;;;;;;1.10;1.00;;;20.00;52.30;;;;;;4909075;29;20040;-39
2021/11/24 06:42:04;;;;;;;1.35;0.90;;;19.90;52.30;;;;;;4909225;29;20060;-40
2021/11/24 06:44:31;;;;;;;1.63;0.90;;;19.80;52.40;;;;;;4908855;29;20039;-39
2021/11/24 06:46:57;;;;;;;1.42;0.90;;;19.80;52.60;;;;;;4908969;29;20027;-39
2021/11/24 06:49:23;;;;;;;2.35;0.80;;;20.00;52.60;;;;;;4908494;29;20853;-39
2021/11/24 06:51:49;;;;;;;1.30;0.80;;;20.00;52.50;;;;;;4908062;29;20025;-39
2021/11/24 06:54:18;;;;;;;1.05;0.68;;;20.00;52.40;;;;;;4908383;29;20029;-39
2021/11/24 06:56:45;;;;;;;1.02;0.93;;;20.00;52.30;;;;;;4899197;29;20037;-39
2021/11/24 06:59:11;;;;;;;0.80;0.80;;;19.90;52.30;;;;;;4890200;29;20029;-39
2021/11/24 07:01:37;;;;;;;1.63;0.80;;;19.80;52.40;;;;;;4901984;29;20065;-39
2021/11/24 07:04:04;;;;;;;1.40;0.88;;;19.90;52.60;;;;;;4907822;29;20088;-39
2021/11/24 07:06:30;;;;;;;1.60;0.80;;;19.90;52.50;;;;;;4908876;29;20032;-39
2021/11/24 07:08:56;;;;;;;1.30;1.00;;;20.00;52.50;;;;;;4906416;29;20385;-39
2021/11/24 07:11:27;;;;;;;0.95;0.82;;;20.10;52.50;;;;;;4900046;29;20031;-39
2021/11/24 07:13:54;;;;;;;1.00;0.80;;;20.10;52.30;;;;;;4908093;29;20286;-39
2021/11/24 07:16:20;;;;;;;1.20;0.95;;;20.00;52.30;;;;;;4908119;29;20043;-39
2021/11/24 07:18:46;;;;;;;1.30;1.00;;;19.90;52.40;;;;;;4914557;29;20056;-39
2021/11/24 07:21:12;;;;;;;1.50;0.90;;;19.90;52.50;;;;;;4927073;29;20039;-39
2021/11/24 07:23:38;;;;;;;1.35;0.90;;;19.90;52.50;;;;;;4926947;29;20032;-39
2021/11/24 07:26:04;;;;;;;1.35;0.93;;;20.00;52.50;;;;;;4912613;29;20048;-39
2021/11/24 07:28:31;;;;;;;1.02;0.90;;;20.10;52.40;;;;;;4914986;29;20031;-39
2021/11/24 07:30:57;;;;;;;1.38;0.80;;;20.10;52.20;;;;;;4908079;29;20028;-40
2021/11/24 07:33:23;;;;;;;1.42;0.73;;;20.00;52.20;;;;;;4908006;29;20024;-39
2021/11/24 07:35:49;;;;;;;2.17;1.10;;;19.90;52.30;;;;;;4907686;29;20025;-39
2021/11/24 07:38:15;;;;;;;1.17;0.80;;;19.80;52.50;;;;;;4907757;29;20044;-39
2021/11/24 07:40:41;;;;;;;1.48;1.08;;;19.90;52.50;;;;;;4907956;29;20084;-39
2021/11/24 07:43:08;;;;;;;1.38;0.80;;;20.00;52.50;;;;;;4907988;29;20044;-39
2021/11/24 07:45:34;;;;;;;0.85;0.73;;;20.10;52.40;;;;;;4907680;29;20060;-39
2021/11/24 07:48:00;;;;;;;0.98;0.73;;;20.10;52.30;;;;;;4907067;29;20043;-39
2021/11/24 07:50:26;;;;;;;1.98;1.00;;;20.00;52.10;;;;;;4907648;29;20032;-39
2021/11/24 07:52:53;;;;;;;1.95;0.90;;;19.90;52.20;;;;;;4907681;29;20028;-39
2021/11/24 07:55:19;;;;;;;1.23;0.90;;;19.80;52.90;;;;;;4906985;29;20048;-39
2021/11/24 07:57:45;;;;;;;1.33;1.02;;;19.90;52.50;;;;;;4907899;29;20044;-39
2021/11/24 08:00:11;;;;;;;2.13;0.80;;;20.00;52.40;;;;;;4907529;29;20084;-39
2021/11/24 08:02:38;;;;;;;0.95;0.80;;;20.10;52.30;;;;;;4903396;29;20044;-39
2021/11/24 08:05:05;;;;;;;1.30;0.82;;;20.10;52.20;;;;;;4907103;29;20088;-39
2021/11/24 08:07:36;;;;;;;;;;;20.00;52.00;;;;;;4907736;29;20065;-39
2021/11/24 08:10:03;;;;;;;1.50;1.05;;;19.90;52.10;;;;;;4907369;29;19911;-39
2021/11/24 08:12:30;;;;;;;1.80;1.00;;;19.80;52.20;;;;;;4907536;29;20028;-39
2021/11/24 08:14:56;;;;;;;0.90;0.70;;;19.90;52.40;;;;;;4907260;29;20036;-40
2021/11/24 08:17:22;;;;;;;1.05;0.80;;;19.90;52.40;;;;;;4907374;29;20045;-39
2021/11/24 08:19:49;;;;;;;1.10;0.80;;;20.00;52.40;;;;;;4904851;29;20579;-39
2021/11/24 08:22:15;;;;;;;1.13;0.70;;;20.10;52.30;;;;;;4888738;29;20033;-39
2021/11/24 08:24:41;;;;;;;1.10;0.90;;;20.10;52.10;;;;;;4891231;29;20026;-40
2021/11/24 08:27:07;;;;;;;1.45;0.90;;;20.00;52.00;;;;;;4906951;29;20036;-39
2021/11/24 08:29:33;;;;;;;1.20;1.02;;;19.90;52.20;;;;;;4889303;29;20039;-45
2021/11/24 08:32:00;;;;;;;1.60;0.88;;;19.90;52.40;;;;;;4888490;29;20734;-39
2021/11/24 08:34:26;;;;;;;1.27;0.90;;;19.90;52.40;;;;;;4905043;29;20044;-39
2021/11/24 08:36:52;;;;;;;1.10;0.82;;;20.00;52.40;;;;;;4906992;29;20037;-39
2021/11/24 08:39:19;;;;;;;1.60;1.00;;;20.10;52.30;;;;;;4907309;29;20032;-39
2021/11/24 08:41:45;;;;;;;1.60;1.10;;;20.00;52.00;;;;;;4907391;29;20025;-39
2021/11/24 08:44:11;;;;;;;1.30;1.00;;;20.00;52.00;;;;;;4907330;29;20036;-39
2021/11/24 08:46:38;;;;;;;1.53;0.90;;;19.90;52.20;;;;;;4906496;29;20028;-39
2021/11/24 08:49:05;;;;;;;1.23;0.88;;;19.80;52.30;;;;;;4907019;29;20302;-39
2021/11/24 08:51:34;;;;;;;;;;;19.90;52.90;;;;;;4907484;29;20033;-39
2021/11/24 08:54:00;;;;;;;1.77;1.10;;;20.00;52.20;;;;;;4907218;29;19911;-39
2021/11/24 08:56:26;;;;;;;1.17;0.90;;;20.10;52.30;;;;;;4907350;29;20033;-39
2021/11/24 08:58:52;;;;;;;1.35;0.98;;;20.10;52.10;;;;;;4907430;29;20042;-39
2021/11/24 09:01:18;;;;;;;1.17;1.00;;;20.10;51.90;;;;;;4910915;29;20029;-40
2021/11/24 09:03:44;;;;;;;0.80;0.68;;;19.90;51.90;;;;;;4910918;29;20061;-40
2021/11/24 09:06:11;;;;;;;1.55;0.88;;;19.90;52.10;;;;;;4909841;29;20028;-39
2021/11/24 09:08:37;;;;;;;1.17;0.70;;;19.80;52.30;;;;;;4910426;29;20052;-39
2021/11/24 09:11:03;;;;;;;1.00;0.90;;;19.90;52.30;;;;;;4895329;29;20045;-39
2021/11/24 09:13:29;;;;;;;1.23;0.85;;;20.00;52.20;;;;;;4891872;29;20025;-39
2021/11/24 09:15:55;;;;;;;1.10;1.00;;;20.10;52.20;;;;;;4892057;29;20176;-39
2021/11/24 09:18:21;;;;;;;1.20;0.93;;;20.10;52.00;;;;;;4896112;29;20092;-39
2021/11/24 09:20:47;;;;;;;1.40;1.00;;;20.00;51.90;;;;;;4929411;29;20676;-39
2021/11/24 09:23:18;;;;;;;1.40;1.10;;;19.90;52.00;;;;;;4926199;29;20028;-39
2021/11/24 09:25:50;;;;;;;1.52;0.90;;;19.80;52.10;;;;;;4892484;29;20047;-39
2021/11/24 09:28:19;;;;;;;1.40;0.82;;;19.90;52.20;;;;;;4899339;29;20029;-39
2021/11/24 09:30:45;;;;;;;1.38;0.98;;;20.00;52.10;;;;;;4910382;29;20037;-39
2021/11/24 09:33:11;;;;;;;1.30;0.93;;;20.10;52.10;;;;;;4910417;29;20025;-39
2021/11/24 09:35:37;;;;;;;1.50;1.10;;;20.10;52.00;;;;;;4910182;29;20699;-39
2021/11/24 09:38:05;;;;;;;1.10;0.90;;;20.00;51.70;;;;;;4909841;29;20037;-39
2021/11/24 09:40:32;;;;;;;1.45;1.02;;;20.00;51.90;;;;;;4910406;29;20035;-39
2021/11/24 09:43:00;;;;;;;1.50;1.10;;;19.80;52.00;;;;;;4901060;29;20033;-39
2021/11/24 09:45:26;;;;;;;1.85;1.10;;;19.90;52.10;;;;;;4891575;29;20033;-39
2021/11/24 09:47:53;;;;;;;1.60;0.93;;;20.00;52.10;;;;;;4891178;29;20037;-39
2021/11/24 09:50:23;;;;;;;1.52;0.90;;;20.10;52.10;;;;;;4928330;29;20119;-39
2021/11/24 09:52:49;;;;;;;1.48;0.98;;;20.10;52.00;;;;;;4911372;29;20499;-40
2021/11/24 09:55:15;;;;;;;2.38;1.00;;;20.10;51.80;;;;;;4909758;29;20035;-39
2021/11/24 09:57:41;;;;;;;2.15;1.20;;;20.00;51.80;;;;;;4909619;29;20108;-39
2021/11/24 10:00:08;;;;;;;1.30;0.90;;;19.90;51.90;;;;;;4910085;29;20032;-39
2021/11/24 10:02:36;;;;;;;1.45;1.00;;;19.90;52.10;;;;;;4904379;29;20033;-39
2021/11/24 10:05:02;;;;;;;1.30;0.90;;;20.00;52.10;;;;;;4909601;29;20206;-39
2021/11/24 10:07:28;;;;;;;1.38;1.10;;;20.00;51.90;;;;;;4905573;29;20122;-39
2021/11/24 10:09:54;;;;;;;1.80;1.10;;;20.10;51.90;;;;;;4909893;29;20016;-39
2021/11/24 10:12:20;;;;;;;1.42;0.98;;;20.10;51.70;;;;;;4907660;29;20036;-39
2021/11/24 10:14:47;;;;;;;1.52;0.85;;;20.00;51.70;;;;;;4909709;29;20029;-39
2021/11/24 10:17:16;;;;;;;1.88;0.93;;;19.90;51.70;;;;;;4903305;29;20040;-39
2021/11/24 10:20:10;;;;;;;1.30;0.95;;;19.90;51.90;;;;;;4918056;29;20060;-39
2021/11/24 10:22:41;;;;;;;1.80;1.17;;;20.00;51.90;;;;;;4928072;29;20032;-39
2021/11/24 10:25:09;;;;;;;1.33;1.00;;;20.10;51.90;;;;;;4921887;29;20036;-39
2021/11/24 10:27:38;;;;;;;1.88;1.10;;;20.10;51.90;;;;;;4911704;29;20032;-39
2021/11/24 10:30:04;;;;;;;2.38;1.30;;;20.10;51.70;;;;;;4928236;29;20028;-39
2021/11/24 10:32:31;;;;;;;1.30;1.00;;;20.00;51.60;;;;;;4928286;29;20024;-39
2021/11/24 10:34:57;;;;;;;2.45;1.30;;;19.90;51.80;;;;;;4927820;29;20036;-39
2021/11/24 10:37:23;;;;;;;1.30;1.00;;;19.90;52.00;;;;;;4927801;29;20067;-39
2021/11/24 10:40:07;;;;;;;1.80;1.13;;;20.00;51.90;;;;;;4927704;29;20275;-39
2021/11/24 10:42:40;;;;;;;1.80;1.23;;;20.10;51.80;;;;;;4928132;29;20039;-39
2021/11/24 10:45:13;;;;;;;1.83;1.27;;;20.10;51.70;;;;;;4928045;29;20036;-39
2021/11/24 10:47:59;;;;;;;1.92;1.13;;;20.00;51.60;;;;;;4926814;29;20028;-39
2021/11/24 10:50:27;;;;;;;2.22;1.40;;;19.90;51.70;;;;;;4910481;29;20028;-40
2021/11/24 10:52:53;;;;;;;2.20;1.30;;;19.80;51.80;;;;;;4927948;29;20040;-39
2021/11/24 10:55:33;;;;;;;3.28;1.35;;;19.90;51.90;;;;;;4920213;29;20028;-39
2021/11/24 10:58:07;;;;;;;2.40;1.30;;;20.00;51.80;;;;;;4934726;29;20039;-39
2021/11/24 11:00:40;;;;;;;1.55;1.10;;;20.10;51.80;;;;;;4908768;29;20036;-39
2021/11/24 11:03:08;;;;;;;2.05;1.20;;;20.10;51.60;;;;;;4917927;29;20059;-39
2021/11/24 11:05:35;;;;;;;2.10;1.35;;;20.10;51.50;;;;;;4927466;29;20608;-39
2021/11/24 11:08:06;;;;;;;2.88;1.30;;;19.90;51.50;;;;;;4927616;29;20100;-39
2021/11/24 11:10:34;;;;;;;1.65;1.30;;;19.80;51.60;;;;;;4927247;29;20032;-39
2021/11/24 11:13:16;;;;;;;2.42;1.55;;;19.90;51.90;;;;;;4927345;29;20044;-39
2021/11/24 11:15:50;;;;;;;2.00;1.17;;;19.90;51.80;;;;;;4926708;29;20033;-39
2021/11/24 11:18:18;;;;;;;1.42;1.10;;;20.10;51.70;;;;;;4927362;29;20040;-40
2021/11/24 11:20:51;;;;;;;1.80;1.20;;;20.10;51.70;;;;;;4927182;29;20075;-39
2021/11/24 11:23:21;;;;;;;2.00;1.02;;;20.10;51.40;;;;;;4927259;29;20067;-39
2021/11/24 11:26:13;;;;;;;2.45;1.38;;;19.90;51.50;;;;;;4928312;29;20024;-39
2021/11/24 11:28:41;;;;;;;2.25;1.33;;;19.80;51.60;;;;;;4946067;29;20179;-39
2021/11/24 11:31:09;;;;;;;2.08;1.20;;;19.90;51.70;;;;;;4929264;29;20032;-39
2021/11/24 11:33:46;;;;;;;1.77;1.25;;;20.00;51.90;;;;;;4932944;29;20028;-39
2021/11/24 11:36:12;;;;;;;1.83;1.20;;;20.10;51.60;;;;;;4926992;29;20040;-40
2021/11/24 11:38:45;;;;;;;2.30;1.20;;;20.10;51.60;;;;;;4926858;29;20291;-39
2021/11/24 11:41:11;;;;;;;1.63;1.30;;;20.10;51.40;;;;;;4922405;29;20517;-39
2021/11/24 11:43:37;;;;;;;2.70;1.15;;;20.00;51.40;;;;;;4908138;29;20048;-39
2021/11/24 11:46:17;;;;;;;2.20;1.30;;;19.90;51.50;;;;;;4908171;29;20035;-39
2021/11/24 11:48:44;;;;;;;2.00;1.40;;;19.80;51.60;;;;;;4914063;29;20084;-39
2021/11/24 11:51:11;;;;;;;2.13;1.15;;;19.90;51.80;;;;;;4926479;29;20036;-40
2021/11/24 11:53:46;;;;;;;2.20;1.50;;;20.00;51.70;;;;;;4926937;29;20055;-39
2021/11/24 11:56:27;;;;;;;2.72;1.48;;;20.00;51.60;;;;;;4926414;29;20040;-39
2021/11/24 11:59:03;;;;;;;2.30;1.48;;;20.10;51.60;;;;;;4918944;29;20048;-39
2021/11/24 12:01:41;;;;;;;2.13;1.38;;;20.10;51.40;;;;;;4925921;29;20036;-39
2021/11/24 12:04:14;;;;;;;2.92;1.50;;;20.00;51.40;;;;;;4926289;29;20036;-39
2021/11/24 12:06:41;;;;;;;1.80;1.40;;;19.90;51.60;;;;;;4907338;29;20035;-39
2021/11/24 12:09:12;;;;;;;2.13;1.42;;;19.80;51.60;;;;;;4907463;29;20056;-39
2021/11/24 12:12:04;;;;;;;2.00;1.30;;;19.90;51.70;;;;;;4921688;29;20028;-39
2021/11/24 12:14:40;;;;;;;1.73;1.40;;;20.00;51.70;;;;;;4926473;29;20088;-39
2021/11/24 12:17:31;;;;;;;2.08;1.48;;;20.10;51.60;;;;;;4916883;29;20032;-39
2021/11/24 12:20:30;;;;;;;2.10;1.40;;;20.10;51.60;;;;;;4925591;29;20066;-39
2021/11/24 12:22:59;;;;;;;1.67;1.33;;;20.00;51.40;;;;;;4903315;29;20043;-39
2021/11/24 12:25:28;;;;;;;4.32;1.50;;;19.90;51.50;;;;;;4909118;29;20044;-39
2021/11/24 12:27:55;;;;;;;1.92;1.42;;;19.80;51.60;;;;;;4926235;29;20084;-39
2021/11/24 12:30:56;;;;;;;2.65;1.50;;;19.90;51.80;;;;;;4925779;29;20040;-39
2021/11/24 12:33:30;;;;;;;2.50;1.50;;;20.00;51.70;;;;;;4907014;29;20044;-39
2021/11/24 12:36:11;;;;;;;2.13;1.40;;;20.10;51.70;;;;;;4907153;29;20036;-39
2021/11/24 12:38:52;;;;;;;1.83;1.38;;;20.10;51.50;;;;;;4907082;29;20040;-39
2021/11/24 12:41:40;;;;;;;1.98;1.38;;;20.00;51.40;;;;;;4906985;29;20036;-39
2021/11/24 12:44:09;;;;;;;1.77;1.35;;;19.90;51.50;;;;;;4907306;29;20035;-39
2021/11/24 12:46:38;;;;;;;2.17;1.30;;;19.80;51.60;;;;;;4907011;29;20041;-39
2021/11/24 12:49:11;;;;;;;2.17;1.40;;;19.90;51.80;;;;;;4916731;29;20064;-39
2021/11/24 12:51:46;;;;;;;2.58;1.48;;;19.90;51.70;;;;;;4923099;29;20032;-39
2021/11/24 12:54:24;;;;;;;2.13;1.23;;;20.00;51.70;;;;;;4907170;29;20111;-39